ADDS METAR Data INFO
IDs: Format: Raw Decoded Include TAF

Data at: 0731 UTC 21 Jul 2018

PADQ 210653Z AUTO 21004KT 10SM BKN110 16/12 A3035 RMK AO2 SLP278 T01560117 TSNO
PADQ 210553Z 16010KT 10SM OVC095 17/12 A3034 RMK AO2 SLP276 T01670122 10200 20167 53001
PADQ 210453Z 14007KT 10SM SCT033 BKN100 OVC120 17/12 A3034 RMK AO2 SLP274 T01720122
PADQ 210353Z 19009KT 10SM FEW030 OVC090 18/12 A3034 RMK AO2 SLP274 T01830122
PADQ 210253Z 19011KT 10SM BKN030 BKN037 19/13 A3034 RMK AO2 SLP274 T01940128 51003
PADQ 210153Z 20008KT 10SM BKN028 OVC035 19/13 A3033 RMK AO2 SLP273 T01940128
PADQ 210136Z 20010KT 10SM BKN027 OVC036 20/13 A3033 RMK AO2 T02000128
PADQ 210053Z 14012KT 10SM BKN030 19/13 A3033 RMK AO2 SLP271 T01890133
PADQ 202353Z 14013KT 10SM FEW034 SCT045 BKN055 19/13 A3033 RMK AO2 SLP272 T01940133 10222 20133 51003
PADQ 202253Z 15011KT 10SM FEW034 SCT045 BKN055 21/13 A3033 RMK AO2 SLP272 T02110128
PADQ 202153Z VRB06KT 10SM FEW042 18/13 A3033 RMK AO2 SLP271 T01830128
PADQ 202053Z 05009KT 10SM SCT050 19/13 A3032 RMK AO2 SLP269 T01890128 55000
PADQ 201953Z 05006KT 10SM SCT049 18/12 A3032 RMK AO2 SLP268 T01780122
PADQ 201926Z 05007KT 10SM SCT028 BKN035 BKN047 16/12 A3032 RMK AO2 T01610117
PADQ 201853Z 06006KT 10SM BKN027 16/11 A3032 RMK AO2 SLP269 T01560111
PADQ 201850Z 06006KT 10SM BKN027 BKN044 16/11 A3033 RMK AO2
PADQ 201753Z 09004KT 10SM FEW055 13/11 A3033 RMK AO2 SLP269 T01330111 10139 20111 53003
PADQ 201653Z 05005KT 10SM SCT003 OVC060 13/11 A3032 RMK AO2 SLP268 T01280106
PADQ 201629Z 03005KT 10SM SCT003 OVC060 13/11 A3032 RMK AO2 T01280111
PADQ 201600Z 05005KT 10SM OVC003 12/11 A3032 RMK AO2 T01170106
PADQ 201553Z 04006KT 10SM BKN005 OVC022 12/11 A3032 RMK AO2 SLP266 T01170106
PADQ 201524Z 05006KT 10SM BKN005 OVC022 12/11 A3031 RMK AO2 T01170106
PADQ 201453Z AUTO 07004KT 10SM FEW003 OVC023 12/11 A3032 RMK AO2 SLP266 T01170106 51001 TSNO
PADQ 201451Z AUTO 07005KT 10SM FEW003 OVC023 12/11 A3032 RMK AO2 TSNO
PADQ 201353Z AUTO 08005KT 10SM BKN003 OVC022 12/11 A3032 RMK SLP266 T01170106 TSNO VIA AUTODIAL
PADQ 201253Z AUTO 08006KT 10SM OVC004 12/11 A3031 RMK AO2 SLP265 T01170106 TSNO
PADQ 201235Z AUTO 06006KT 10SM BKN004 OVC018 12/10 A3031 RMK AO2 T01170100 TSNO
PADQ 201227Z AUTO 05006KT 10SM SCT004 OVC017 12/11 A3031 RMK AO2 T01170106 TSNO
PADQ 201153Z AUTO 11004KT 10SM OVC018 11/11 A3031 RMK AO2 SLP264 T01110106 10133 20111 58002 TSNO
PADQ 201128Z AUTO 12005KT 10SM SCT002 BKN020 OVC028 11/10 A3031 RMK AO2 T01110100 TSNO
PADQ 201119Z AUTO 13004KT 10SM BKN002 BKN020 OVC028 11/10 A3032 RMK AO2 T01110100 TSNO
PADQ 201110Z AUTO 12005KT 10SM SCT003 OVC020 11/10 A3032 RMK AO2 T01110100 TSNO
PADQ 201053Z AUTO 13004KT 10SM BKN022 OVC032 12/10 A3032 RMK AO2 SLP266 T01170100 TSNO
PADQ 201046Z AUTO 00000KT 10SM BKN022 OVC032 12/10 A3032 RMK AO2 T01170100 TSNO
PADQ 201017Z AUTO 12005KT 10SM FEW020 FEW025 OVC030 12/10 A3032 RMK AO2 T01170100 TSNO
PADQ 200953Z AUTO 14005KT 10SM BKN020 OVC025 12/09 A3032 RMK AO2 SLP268 T01220094 TSNO
PADQ 200853Z AUTO 13008KT 10SM OVC024 12/09 A3032 RMK AO2 SLP267 T01220094 401610078 51008 TSNO
PADQ 200753Z AUTO 14008KT 10SM OVC023 12/09 A3031 RMK AO2 SLP266 T01220089 TSNO
PADQ 200711Z AUTO 14009KT 10SM BKN026 OVC039 13/09 A3031 RMK AO2 T01280089 TSNO
PADQ 200653Z AUTO 14009KT 10SM OVC039 13/09 A3031 RMK AO2 SLP263 T01280089 TSNO
PADQ 200553Z 13010KT 10SM CLR 13/09 A3029 RMK AO2 SLP259 T01330089 10161 20133 53005
PADQ 200453Z 03006KT 10SM FEW038 14/09 A3029 RMK AO2 SLP256 T01440089
PADQ 200353Z 13009KT 10SM CLR 14/09 A3028 RMK AO2 SLP254 T01440089
PADQ 200253Z 14010KT 10SM CLR 16/08 A3028 RMK AO2 SLP254 T01610083 56002
PADQ 200153Z 13012KT 10SM CLR 16/09 A3028 RMK AO2 SLP254 T01560089
PADQ 200053Z 14014KT 10SM CLR 16/09 A3028 RMK AO2 SLP255 T01560089
PADQ 192353Z 14014KT 10SM CLR 16/09 A3029 RMK AO2 SLP256 T01560089 10161 20117 58003
PADQ 192331Z 12010KT 10SM SCT027 16/09 A3029 RMK AO2 T01610094
PADQ 192253Z 12010KT 10SM OVC026 14/09 A3030 RMK AO2 SLP259 T01440089
PADQ 192153Z 12009KT 10SM OVC025 14/09 A3030 RMK AO2 SLP261 T01440089
PADQ 192053Z 12011KT 10SM OVC021 14/09 A3029 RMK AO2 SLP259 T01440089 53003
PADQ 191953Z 12005KT 10SM OVC019 13/09 A3029 RMK AO2 SLP257 T01280089